Midelt, Morocco
Current Conditions -  °F | °C
As of 1:00 AM on Sunday 23 Nov 2014 (Local Time) from GMFK Reporting Station
Moderate Rain Moderate Rain  
Wind Chill: 54°   Ceiling: 1600
Heat Index: 54°   Visibility: 6mi
Dew Point: 54°   Wind: 10mph
Humidity: 100%   Direction: 170°S
Pressure: 30.09"   Gusts: NA
Location:  32.7°N, 4.74°W
Report Text: GMFK 230000Z 17009KT 9999 RA BKN016 FEW026CB BKN080 12/12 Q1019 NOSIG
Loading
Personal Weather Stations






























Interactive Weather Map New forecast layout! Learn more

10-Day Weather Forecast

Advertisements
Track Severe Weather on mobile